Time;durP1;ratioP1;P1;durP2;ratioP2;P2;SDS_P1;SDS_P2;PMS_P1;PMS_P2;Temp;Humidity;BMP_temperature;BMP_pressure;BME280_temperature;BME280_humidity;BME280_pressure;Samples;Min_cycle;Max_cycle;Signal;HPM_P1;HPM_P2
2023/06/20 00:01:09;;;;;;;;;;;24.20;92.40;;;;;;7332063;19;110222;-65
2023/06/20 00:03:36;;;;;;;;;;;24.10;92.50;;;;;;7332804;19;110179;-65
2023/06/20 00:06:03;;;;;;;;;;;24.10;92.60;;;;;;7333482;19;110612;-65
2023/06/20 00:08:30;;;;;;;;;;;24.10;92.80;;;;;;7334782;19;111042;-64
2023/06/20 00:10:58;;;;;;;;;;;24.10;92.80;;;;;;7335085;19;108392;-65
2023/06/20 00:13:25;;;;;;;;;;;24.10;92.90;;;;;;7333365;19;110739;-64
2023/06/20 00:15:52;;;;;;;;;;;24.00;92.90;;;;;;7331531;19;111505;-65
2023/06/20 00:18:19;;;;;;;;;;;24.00;93.10;;;;;;7331872;19;109573;-65
2023/06/20 00:20:46;;;;;;;;;;;24.00;93.50;;;;;;7332098;19;113394;-65
2023/06/20 00:23:13;;;;;;;;;;;23.90;93.40;;;;;;7328769;19;110966;-64
2023/06/20 00:25:40;;;;;;;;;;;23.90;93.60;;;;;;7333650;19;112550;-65
2023/06/20 00:28:10;;;;;;;;;;;23.90;93.60;;;;;;7331220;19;111479;-67
2023/06/20 00:30:37;;;;;;;;;;;23.90;93.80;;;;;;7329288;19;109433;-65
2023/06/20 00:33:04;;;;;;;;;;;23.80;94.00;;;;;;7337283;19;109805;-65
2023/06/20 00:35:31;;;;;;;;;;;23.90;94.00;;;;;;7328173;19;108981;-65
2023/06/20 00:38:00;;;;;;;;;;;23.90;94.10;;;;;;7332030;19;109000;-65
2023/06/20 00:40:28;;;;;;;;;;;23.90;94.20;;;;;;7330547;19;111641;-65
2023/06/20 00:42:55;;;;;;;;;;;23.90;94.40;;;;;;7333277;19;109143;-65
2023/06/20 00:45:28;;;;;;;;;;;23.90;94.40;;;;;;7330141;19;109479;-65
2023/06/20 00:47:57;;;;;;;;;;;23.80;94.30;;;;;;7330522;19;110302;-65
2023/06/20 00:50:27;;;;;;;;;;;23.80;94.70;;;;;;7332157;19;110440;-65
2023/06/20 00:52:59;;;;;;;;;;;23.80;95.10;;;;;;7331160;19;109610;-64
2023/06/20 00:55:27;;;;;;;;;;;23.80;95.10;;;;;;7335894;19;110277;-65
2023/06/20 00:57:58;;;;;;;;;;;23.80;94.90;;;;;;7332877;19;109043;-65
2023/06/20 01:00:27;;;;;;;;;;;23.80;95.10;;;;;;7327344;19;111684;-65
2023/06/20 01:02:56;;;;;;;;;;;23.80;95.20;;;;;;7331157;19;108569;-65
2023/06/20 01:05:27;;;;;;;;;;;23.70;95.40;;;;;;7330641;19;110439;-65
2023/06/20 01:08:00;;;;;;;;;;;23.70;95.50;;;;;;7329427;19;110460;-65
2023/06/20 01:10:27;;;;;;;;;;;23.70;95.60;;;;;;7332061;19;109288;-65
2023/06/20 01:12:54;;;;;;;;;;;23.70;95.90;;;;;;7328324;19;109396;-65
2023/06/20 01:15:33;;;;;;;;;;;23.60;95.80;;;;;;7331264;19;111572;-65
2023/06/20 01:18:00;;;;;;;;;;;23.70;95.80;;;;;;7332898;19;110884;-65
2023/06/20 01:20:31;;;;;;;;;;;23.60;96.10;;;;;;7329445;19;112275;-65
2023/06/20 01:23:08;;;;;;;;;;;23.60;96.20;;;;;;7332582;19;108513;-65
2023/06/20 01:25:38;;;;;;;;;;;23.60;96.30;;;;;;7329961;19;108834;-65
2023/06/20 01:28:12;;;;;;;;;;;23.50;96.30;;;;;;7329358;19;110433;-65
2023/06/20 01:30:42;;;;;;;;;;;23.50;96.30;;;;;;7333429;19;109024;-65
2023/06/20 01:33:10;;;;;;;;;;;23.50;96.60;;;;;;7332121;19;109175;-65
2023/06/20 01:35:38;;;;;;;;;;;23.50;96.40;;;;;;7330753;19;110766;-65
2023/06/20 01:38:09;;;;;;;;;;;23.40;96.70;;;;;;7328507;19;109495;-65
2023/06/20 01:40:37;;;;;;;;;;;23.40;96.70;;;;;;7337488;19;109647;-65
2023/06/20 01:43:05;;;;;;;;;;;23.40;97.00;;;;;;7332402;19;109174;-65
2023/06/20 01:45:35;;;;;;;;;;;23.30;97.30;;;;;;7329503;19;109729;-65
2023/06/20 01:48:03;;;;;;;;;;;23.30;97.30;;;;;;7328395;19;109705;-65
2023/06/20 01:50:31;;;;;;;;;;;23.30;97.30;;;;;;7328842;19;109768;-64
2023/06/20 01:52:59;;;;;;;;;;;23.30;97.40;;;;;;7329644;19;109327;-65
2023/06/20 01:55:28;;;;;;;;;;;23.30;97.30;;;;;;7333197;19;109588;-65
2023/06/20 01:57:57;;;;;;;;;;;23.30;97.40;;;;;;7327841;19;110105;-65
2023/06/20 02:00:26;;;;;;;;;;;23.30;97.50;;;;;;7329805;19;109690;-64
2023/06/20 02:02:55;;;;;;;;;;;23.30;97.20;;;;;;7330945;19;111573;-65
2023/06/20 02:05:23;;;;;;;;;;;23.30;97.30;;;;;;7330909;19;108911;-65
2023/06/20 02:07:53;;;;;;;;;;;23.30;97.40;;;;;;7329345;19;109490;-64
2023/06/20 02:10:21;;;;;;;;;;;23.30;97.40;;;;;;7328706;19;108866;-65
2023/06/20 02:12:51;;;;;;;;;;;23.30;97.70;;;;;;7331904;19;108967;-64
2023/06/20 02:15:19;;;;;;;;;;;23.20;98.00;;;;;;7325422;19;110705;-64
2023/06/20 02:17:46;;;;;;;;;;;23.10;98.10;;;;;;7325833;19;108941;-65
2023/06/20 02:20:13;;;;;;;;;;;23.00;97.90;;;;;;7330375;19;109309;-65
2023/06/20 02:22:45;;;;;;;;;;;23.10;97.60;;;;;;7338648;19;111414;-65
2023/06/20 02:25:14;;;;;;;;;;;23.10;97.40;;;;;;7336272;19;110934;-65
2023/06/20 02:27:42;;;;;;;;;;;23.10;97.80;;;;;;7337850;19;112778;-65
2023/06/20 02:30:10;;;;;;;;;;;23.10;97.80;;;;;;7337153;19;110780;-64
2023/06/20 02:32:40;;;;;;;;;;;23.10;97.90;;;;;;7334135;19;109305;-65
2023/06/20 02:35:08;;;;;;;;;;;23.00;98.30;;;;;;7336733;19;109113;-64
2023/06/20 02:37:36;;;;;;;;;;;22.90;98.10;;;;;;7336235;19;110903;-65
2023/06/20 02:40:05;;;;;;;;;;;22.80;98.30;;;;;;7333468;19;110666;-65
2023/06/20 02:42:33;;;;;;;;;;;22.80;98.10;;;;;;7335618;19;109145;-65
2023/06/20 02:45:00;;;;;;;;;;;22.80;98.80;;;;;;7342560;19;109925;-65
2023/06/20 02:47:33;;;;;;;;;;;22.70;98.60;;;;;;7336615;19;110246;-64
2023/06/20 02:50:07;;;;;;;;;;;22.70;98.40;;;;;;7333942;19;109904;-65
2023/06/20 02:52:50;;;;;;;;;;;22.70;98.30;;;;;;7338473;19;109573;-64
2023/06/20 02:55:17;;;;;;;;;;;22.70;97.90;;;;;;7328928;19;110539;-65
2023/06/20 02:57:46;;;;;;;;;;;22.80;97.60;;;;;;7336780;19;108553;-65
2023/06/20 03:00:13;;;;;;;;;;;22.80;97.60;;;;;;7331534;19;109141;-65
2023/06/20 03:02:50;;;;;;;;;;;22.80;97.60;;;;;;7335825;19;110307;-65
2023/06/20 03:05:19;;;;;;;;;;;22.80;98.00;;;;;;7337669;19;108465;-65
2023/06/20 03:07:47;;;;;;;;;;;22.70;98.20;;;;;;7340559;19;109605;-65
2023/06/20 03:10:14;;;;;;;;;;;22.70;98.40;;;;;;7336028;19;108339;-65
2023/06/20 03:12:41;;;;;;;;;;;22.60;99.20;;;;;;7338184;19;109022;-65
2023/06/20 03:15:08;;;;;;;;;;;22.60;99.10;;;;;;7333797;19;109067;-65
2023/06/20 03:17:35;;;;;;;;;;;22.50;98.70;;;;;;7334934;19;109000;-64
2023/06/20 03:20:05;;;;;;;;;;;22.50;98.60;;;;;;7331710;19;109681;-65
2023/06/20 03:22:32;;;;;;;;;;;22.60;99.10;;;;;;7332437;19;110857;-64
2023/06/20 03:24:59;;;;;;;;;;;22.60;99.40;;;;;;7333827;19;109227;-65
2023/06/20 03:27:26;;;;;;;;;;;22.50;99.60;;;;;;7332244;19;115464;-65
2023/06/20 03:29:54;;;;;;;;;;;22.40;99.90;;;;;;7340825;19;109107;-65
2023/06/20 03:32:21;;;;;;;;;;;22.30;99.90;;;;;;7330738;19;110915;-65
2023/06/20 03:34:49;;;;;;;;;;;22.30;99.90;;;;;;7335669;19;109775;-65
2023/06/20 03:37:16;;;;;;;;;;;22.30;99.90;;;;;;7328741;19;113203;-65
2023/06/20 03:39:43;;;;;;;;;;;22.30;99.90;;;;;;7335028;19;109211;-65
2023/06/20 03:42:10;;;;;;;;;;;22.30;99.90;;;;;;7327640;19;110185;-67
2023/06/20 03:44:37;;;;;;;;;;;22.20;99.90;;;;;;7333763;19;109608;-66
2023/06/20 03:47:04;;;;;;;;;;;22.20;99.90;;;;;;7331161;19;109558;-66
2023/06/20 03:49:31;;;;;;;;;;;22.20;99.90;;;;;;7330016;19;110837;-66
2023/06/20 03:51:59;;;;;;;;;;;22.20;99.90;;;;;;7337465;19;108703;-66
2023/06/20 03:54:26;;;;;;;;;;;22.30;99.90;;;;;;7332497;19;109517;-67
2023/06/20 03:56:53;;;;;;;;;;;22.40;99.90;;;;;;7333175;19;108741;-66
2023/06/20 03:59:20;;;;;;;;;;;22.40;99.90;;;;;;7330460;19;110622;-67
2023/06/20 04:01:47;;;;;;;;;;;22.50;99.90;;;;;;7329445;19;109406;-67
2023/06/20 04:04:14;;;;;;;;;;;22.50;99.90;;;;;;7332031;19;109819;-67
2023/06/20 04:06:41;;;;;;;;;;;22.60;99.90;;;;;;7330945;19;113988;-67
2023/06/20 04:09:08;;;;;;;;;;;22.70;99.90;;;;;;7328932;19;109363;-67
2023/06/20 04:11:35;;;;;;;;;;;22.70;99.90;;;;;;7333382;19;109526;-67
2023/06/20 04:14:02;;;;;;;;;;;22.60;99.90;;;;;;7337403;19;108362;-67
2023/06/20 04:16:29;;;;;;;;;;;22.50;99.90;;;;;;7336418;19;108812;-67
2023/06/20 04:18:56;;;;;;;;;;;22.50;99.90;;;;;;7330912;19;114359;-67
2023/06/20 04:21:23;;;;;;;;;;;22.40;99.90;;;;;;7334472;19;110687;-67
2023/06/20 04:23:50;;;;;;;;;;;22.40;99.90;;;;;;7331118;19;111293;-67
2023/06/20 04:26:17;;;;;;;;;;;22.40;99.90;;;;;;7333871;19;109492;-67
2023/06/20 04:28:44;;;;;;;;;;;22.50;99.90;;;;;;7329786;19;110807;-67
2023/06/20 04:31:11;;;;;;;;;;;22.40;99.90;;;;;;7336196;19;111898;-67
2023/06/20 04:33:43;;;;;;;;;;;22.40;99.90;;;;;;7339424;19;110143;-67
2023/06/20 04:36:13;;;;;;;;;;;22.50;99.90;;;;;;7334655;19;108860;-67
2023/06/20 04:38:40;;;;;;;;;;;22.50;99.90;;;;;;7330738;19;108428;-67
2023/06/20 04:41:08;;;;;;;;;;;22.50;99.90;;;;;;7332769;19;109939;-67
2023/06/20 04:43:36;;;;;;;;;;;22.50;99.90;;;;;;7330392;19;110037;-67
2023/06/20 04:46:04;;;;;;;;;;;22.50;99.90;;;;;;7331898;19;108641;-67
2023/06/20 04:48:37;;;;;;;;;;;22.60;99.90;;;;;;7330554;19;110295;-67
2023/06/20 04:51:08;;;;;;;;;;;22.60;99.90;;;;;;7332434;19;108548;-67
2023/06/20 04:53:35;;;;;;;;;;;22.60;99.90;;;;;;7331117;19;108967;-67
2023/06/20 04:56:03;;;;;;;;;;;22.60;99.90;;;;;;7335637;19;109460;-67
2023/06/20 04:58:30;;;;;;;;;;;22.60;99.90;;;;;;7331637;19;109245;-67
2023/06/20 05:01:00;;;;;;;;;;;22.60;99.90;;;;;;7332268;19;109124;-66
2023/06/20 05:03:27;;;;;;;;;;;22.60;99.90;;;;;;7332250;19;109188;-67
2023/06/20 05:05:54;;;;;;;;;;;22.70;99.90;;;;;;7328000;19;109965;-67
2023/06/20 05:08:21;;;;;;;;;;;22.70;99.90;;;;;;7332256;19;109857;-67
2023/06/20 05:10:48;;;;;;;;;;;22.80;99.90;;;;;;7331030;19;110959;-67
2023/06/20 05:13:15;;;;;;;;;;;22.80;99.90;;;;;;7332431;19;109385;-67
2023/06/20 05:15:42;;;;;;;;;;;22.80;99.90;;;;;;7330480;19;109471;-67
2023/06/20 05:18:09;;;;;;;;;;;22.90;99.90;;;;;;7336502;19;109906;-67
2023/06/20 05:20:36;;;;;;;;;;;23.00;99.90;;;;;;7328402;19;109994;-67
2023/06/20 05:23:03;;;;;;;;;;;23.10;99.90;;;;;;7330020;19;109360;-67
2023/06/20 05:25:31;;;;;;;;;;;23.10;99.90;;;;;;7330277;19;109740;-67
2023/06/20 05:27:58;;;;;;;;;;;23.20;99.90;;;;;;7328448;19;110537;-67
2023/06/20 05:30:25;;;;;;;;;;;23.20;99.90;;;;;;7328362;19;110385;-67
2023/06/20 05:32:52;;;;;;;;;;;23.30;99.90;;;;;;7328674;19;110879;-67
2023/06/20 05:35:20;;;;;;;;;;;23.30;99.90;;;;;;7332806;19;110018;-68
2023/06/20 05:37:49;;;;;;;;;;;23.40;99.90;;;;;;7331722;19;109703;-62
2023/06/20 05:40:16;;;;;;;;;;;23.40;99.90;;;;;;7339899;19;109201;-65
2023/06/20 05:42:43;;;;;;;;;;;23.60;99.90;;;;;;7331363;19;108791;-64
2023/06/20 05:45:10;;;;;;;;;;;23.60;99.90;;;;;;7332646;19;108557;-65
2023/06/20 05:47:38;;;;;;;;;;;23.70;99.90;;;;;;7333089;19;109804;-64
2023/06/20 05:50:05;;;;;;;;;;;23.80;99.90;;;;;;7335441;19;109022;-64
2023/06/20 05:52:32;;;;;;;;;;;23.80;99.90;;;;;;7328749;19;111230;-66
2023/06/20 05:54:59;;;;;;;;;;;23.90;99.90;;;;;;7333448;19;109134;-65
2023/06/20 05:57:26;;;;;;;;;;;24.00;99.90;;;;;;7333747;19;109922;-64
2023/06/20 05:59:53;;;;;;;;;;;24.10;99.90;;;;;;7341353;19;108848;-65
2023/06/20 06:02:23;;;;;;;;;;;24.10;99.90;;;;;;7345165;19;109417;-64
2023/06/20 06:04:50;;;;;;;;;;;24.10;99.90;;;;;;7337493;19;109585;-65
2023/06/20 06:07:17;;;;;;;;;;;24.10;99.90;;;;;;7340454;19;109130;-68
2023/06/20 06:09:45;;;;;;;;;;;24.10;99.90;;;;;;7340751;19;109515;-65
2023/06/20 06:12:13;;;;;;;;;;;24.10;99.90;;;;;;7342331;19;108568;-67
2023/06/20 06:14:41;;;;;;;;;;;24.20;99.90;;;;;;7338553;19;109865;-70
2023/06/20 06:17:09;;;;;;;;;;;24.20;99.90;;;;;;7341176;19;108861;-65
2023/06/20 06:19:36;;;;;;;;;;;24.30;99.90;;;;;;7341496;19;108810;-68
2023/06/20 06:22:03;;;;;;;;;;;24.30;99.90;;;;;;7338772;19;109110;-67
2023/06/20 06:24:30;;;;;;;;;;;24.40;99.90;;;;;;7343219;19;109793;-69
2023/06/20 06:26:57;;;;;;;;;;;24.40;99.90;;;;;;7337014;19;109790;-66
2023/06/20 06:29:25;;;;;;;;;;;24.50;99.90;;;;;;7339043;19;108758;-65
2023/06/20 06:31:53;;;;;;;;;;;24.60;99.90;;;;;;7335013;19;108783;-67
2023/06/20 06:34:20;;;;;;;;;;;24.80;99.90;;;;;;7336632;19;110589;-64
2023/06/20 06:36:49;;;;;;;;;;;24.90;99.90;;;;;;7334923;19;109934;-65
2023/06/20 06:39:17;;;;;;;;;;;25.00;99.90;;;;;;7338064;19;108496;-67
2023/06/20 06:41:46;;;;;;;;;;;25.10;99.90;;;;;;7332978;19;109234;-64
2023/06/20 06:44:13;;;;;;;;;;;25.20;99.90;;;;;;7343421;19;109574;-64
2023/06/20 06:46:40;;;;;;;;;;;25.30;99.90;;;;;;7338038;19;110943;-64
2023/06/20 06:49:08;;;;;;;;;;;25.40;99.90;;;;;;7338560;19;108321;-67
2023/06/20 06:51:36;;;;;;;;;;;25.40;99.90;;;;;;7339813;19;109475;-64
2023/06/20 06:54:03;;;;;;;;;;;25.60;99.90;;;;;;7337091;19;109696;-65
2023/06/20 06:56:30;;;;;;;;;;;25.70;99.90;;;;;;7337676;19;108978;-65
2023/06/20 06:58:57;;;;;;;;;;;25.80;99.90;;;;;;7338770;19;110055;-68
2023/06/20 07:01:26;;;;;;;;;;;25.80;99.90;;;;;;7337929;19;109558;-67
2023/06/20 07:03:54;;;;;;;;;;;25.80;99.90;;;;;;7340085;19;108451;-65
2023/06/20 07:06:21;;;;;;;;;;;25.80;99.90;;;;;;7342005;19;111141;-68
2023/06/20 07:08:48;;;;;;;;;;;25.80;99.90;;;;;;7338689;19;108889;-65
2023/06/20 07:11:17;;;;;;;;;;;25.70;99.90;;;;;;7335451;19;110134;-65
2023/06/20 07:13:44;;;;;;;;;;;25.80;99.90;;;;;;7338382;19;109730;-65
2023/06/20 07:16:11;;;;;;;;;;;25.90;99.90;;;;;;7336700;19;108462;-64
2023/06/20 07:18:38;;;;;;;;;;;26.00;99.90;;;;;;7339088;19;109420;-68
2023/06/20 07:21:05;;;;;;;;;;;26.10;99.90;;;;;;7336771;19;110032;-65
2023/06/20 07:23:33;;;;;;;;;;;26.10;99.90;;;;;;7337171;19;108614;-66
2023/06/20 07:26:00;;;;;;;;;;;26.20;99.90;;;;;;7338225;19;108596;-64
2023/06/20 07:28:28;;;;;;;;;;;26.30;99.90;;;;;;7342539;19;109637;-65
2023/06/20 07:30:56;;;;;;;;;;;26.30;99.90;;;;;;7336108;19;108489;-65
2023/06/20 07:33:23;;;;;;;;;;;26.30;99.90;;;;;;7337501;19;109347;-64
2023/06/20 07:35:50;;;;;;;;;;;26.40;99.90;;;;;;7336912;19;109069;-65
2023/06/20 07:38:17;;;;;;;;;;;26.50;99.90;;;;;;7334206;19;109440;-64
2023/06/20 07:40:46;;;;;;;;;;;26.60;99.90;;;;;;7335943;19;109091;-64
2023/06/20 07:43:14;;;;;;;;;;;26.70;99.90;;;;;;7334560;19;108690;-65
2023/06/20 07:45:42;;;;;;;;;;;26.60;99.90;;;;;;7335354;19;110169;-64
2023/06/20 07:48:09;;;;;;;;;;;26.70;99.90;;;;;;7336410;19;109747;-65
2023/06/20 07:50:36;;;;;;;;;;;26.70;99.90;;;;;;7341069;19;108911;-64
2023/06/20 07:53:03;;;;;;;;;;;26.80;99.90;;;;;;7334077;19;110239;-65
2023/06/20 07:55:30;;;;;;;;;;;26.80;99.90;;;;;;7335312;19;108344;-66
2023/06/20 07:57:58;;;;;;;;;;;27.00;99.90;;;;;;7337817;19;109781;-65
2023/06/20 08:00:26;;;;;;;;;;;27.10;99.90;;;;;;7336369;19;110949;-64
2023/06/20 08:02:53;;;;;;;;;;;27.20;99.90;;;;;;7333027;19;108775;-65
2023/06/20 08:05:20;;;;;;;;;;;27.30;99.90;;;;;;7337179;19;108508;-65
2023/06/20 08:07:48;;;;;;;;;;;27.50;99.90;;;;;;7335490;19;112174;-60
2023/06/20 08:10:17;;;;;;;;;;;27.50;99.90;;;;;;7335267;19;111640;-60
2023/06/20 08:12:44;;;;;;;;;;;27.50;99.90;;;;;;7339247;19;109503;-60
2023/06/20 08:15:11;;;;;;;;;;;27.60;99.90;;;;;;7333600;19;109010;-60
2023/06/20 08:17:38;;;;;;;;;;;27.70;99.90;;;;;;7335203;19;109576;-60
2023/06/20 08:20:08;;;;;;;;;;;27.80;99.90;;;;;;7332922;19;109640;-60
2023/06/20 08:22:37;;;;;;;;;;;27.90;99.90;;;;;;7337247;19;109248;-60
2023/06/20 08:25:04;;;;;;;;;;;28.10;99.90;;;;;;7334216;19;108571;-60
2023/06/20 08:27:32;;;;;;;;;;;28.20;99.90;;;;;;7333270;19;109266;-60
2023/06/20 08:29:59;;;;;;;;;;;28.30;99.90;;;;;;7338119;19;108550;-60
2023/06/20 08:32:26;;;;;;;;;;;28.40;99.60;;;;;;7337080;19;109215;-60
2023/06/20 08:34:54;;;;;;;;;;;28.40;99.30;;;;;;7334786;19;108494;-60
2023/06/20 08:37:23;;;;;;;;;;;28.40;99.30;;;;;;7336159;19;108618;-60
2023/06/20 08:39:50;;;;;;;;;;;28.40;99.50;;;;;;7332686;19;109104;-60
2023/06/20 08:42:17;;;;;;;;;;;28.50;99.90;;;;;;7335261;19;109146;-60
2023/06/20 08:44:44;;;;;;;;;;;28.60;99.30;;;;;;7334535;19;109556;-60
2023/06/20 08:47:23;;;;;;;;;;;28.60;99.60;;;;;;7333586;19;109170;-60
2023/06/20 08:49:51;;;;;;;;;;;28.70;99.40;;;;;;7334690;19;108832;-60
2023/06/20 08:52:23;;;;;;;;;;;28.80;98.50;;;;;;7336260;19;108526;-60
2023/06/20 08:54:50;;;;;;;;;;;28.90;98.50;;;;;;7335819;19;109566;-60
2023/06/20 08:57:18;;;;;;;;;;;28.90;98.20;;;;;;7332905;19;109278;-60
2023/06/20 08:59:46;;;;;;;;;;;28.90;98.60;;;;;;7333063;19;109223;-60
2023/06/20 09:02:13;;;;;;;;;;;29.00;98.90;;;;;;7334197;19;108958;-60
2023/06/20 09:04:40;;;;;;;;;;;29.10;98.60;;;;;;7331873;19;110145;-63
2023/06/20 09:07:17;;;;;;;;;;;29.30;98.60;;;;;;7334066;19;110267;-60
2023/06/20 09:09:45;;;;;;;;;;;29.30;98.50;;;;;;7330582;19;108520;-60
2023/06/20 09:12:13;;;;;;;;;;;29.30;98.40;;;;;;7331374;19;111780;-60
2023/06/20 09:14:40;;;;;;;;;;;29.40;98.00;;;;;;7334430;19;109533;-60
2023/06/20 09:17:08;;;;;;;;;;;29.40;97.90;;;;;;7336730;19;109015;-60
2023/06/20 09:19:45;;;;;;;;;;;29.50;98.00;;;;;;7333240;19;110443;-60
2023/06/20 09:22:12;;;;;;;;;;;29.60;97.50;;;;;;7335886;19;111198;-60
2023/06/20 09:24:41;;;;;;;;;;;29.70;97.40;;;;;;7334474;19;110151;-63
2023/06/20 09:27:08;;;;;;;;;;;29.80;97.10;;;;;;7306811;19;110831;-64
2023/06/20 09:29:47;;;;;;;;;;;30.00;96.80;;;;;;7334114;19;109433;-63
2023/06/20 09:32:19;;;;;;;;;;;30.10;96.40;;;;;;7331291;19;110528;-64
2023/06/20 09:34:46;;;;;;;;;;;30.10;96.10;;;;;;7332248;19;110251;-64
2023/06/20 09:37:19;;;;;;;;;;;30.20;96.30;;;;;;7330494;19;109697;-64
2023/06/20 09:39:46;;;;;;;;;;;30.20;96.30;;;;;;7339540;19;108934;-64
2023/06/20 09:42:14;;;;;;;;;;;30.10;96.10;;;;;;7331512;19;108564;-64
2023/06/20 09:44:41;;;;;;;;;;;30.00;96.30;;;;;;7332008;19;108548;-64
2023/06/20 09:47:08;;;;;;;;;;;30.10;96.90;;;;;;7331970;19;113526;-63
2023/06/20 09:49:38;;;;;;;;;;;30.20;96.70;;;;;;7334488;19;110750;-64
2023/06/20 09:52:07;;;;;;;;;;;30.40;96.00;;;;;;7333375;19;109142;-64
2023/06/20 09:54:35;;;;;;;;;;;30.40;95.20;;;;;;7333680;19;109263;-64
2023/06/20 09:57:05;;;;;;;;;;;30.40;95.20;;;;;;7335007;19;110903;-64
2023/06/20 09:59:34;;;;;;;;;;;30.50;95.50;;;;;;7333846;19;109094;-64
2023/06/20 10:02:02;;;;;;;;;;;30.60;95.50;;;;;;7335067;19;110066;-64
2023/06/20 10:04:30;;;;;;;;;;;30.70;94.70;;;;;;7332512;19;108990;-64
2023/06/20 10:06:57;;;;;;;;;;;30.70;94.70;;;;;;7332251;19;109438;-64
2023/06/20 10:09:25;;;;;;;;;;;30.80;94.80;;;;;;7331865;19;110767;-65
2023/06/20 10:11:52;;;;;;;;;;;30.90;95.10;;;;;;7330228;19;111309;-65
2023/06/20 10:14:19;;;;;;;;;;;31.00;95.20;;;;;;7328298;19;109411;-64
2023/06/20 10:16:52;;;;;;;;;;;31.10;94.20;;;;;;7331829;19;108977;-67
2023/06/20 10:19:19;;;;;;;;;;;31.00;93.80;;;;;;7330872;19;108443;-70
2023/06/20 10:21:58;;;;;;;;;;;31.00;94.30;;;;;;7331051;19;110103;-66
2023/06/20 10:24:27;;;;;;;;;;;31.10;94.50;;;;;;7340733;19;108583;-71
2023/06/20 10:26:54;;;;;;;;;;;31.20;93.80;;;;;;7331238;19;108926;-73
2023/06/20 10:29:22;;;;;;;;;;;31.20;93.20;;;;;;7335532;19;110880;-70
2023/06/20 10:32:09;;;;;;;;;;;31.20;93.40;;;;;;7328959;19;108759;-65
2023/06/20 10:34:38;;;;;;;;;;;31.30;92.80;;;;;;7332279;19;110800;-69
2023/06/20 10:37:09;;;;;;;;;;;31.50;92.90;;;;;;7330400;19;108930;-68
2023/06/20 10:39:49;;;;;;;;;;;31.40;92.50;;;;;;7331881;19;109216;-72
2023/06/20 10:42:35;;;;;;;;;;;31.50;92.50;;;;;;7329105;19;109467;-66
2023/06/20 10:45:21;;;;;;;;;;;31.50;92.60;;;;;;7342526;19;112355;-71
2023/06/20 10:47:49;;;;;;;;;;;31.50;93.00;;;;;;7335119;19;110186;-64
2023/06/20 10:50:16;;;;;;;;;;;31.70;92.40;;;;;;7338791;19;109125;-73
2023/06/20 10:52:44;;;;;;;;;;;31.80;92.70;;;;;;7336789;19;108968;-65
2023/06/20 10:55:15;;;;;;;;;;;31.90;92.80;;;;;;7337457;19;109175;-65
2023/06/20 10:57:48;;;;;;;;;;;31.90;92.30;;;;;;7335753;19;111939;-65
2023/06/20 11:00:19;;;;;;;;;;;32.00;93.10;;;;;;7336685;19;108462;-72
2023/06/20 11:02:47;;;;;;;;;;;32.00;91.90;;;;;;7334960;19;109289;-71
2023/06/20 11:05:15;;;;;;;;;;;32.20;91.10;;;;;;7331622;19;108807;-71
2023/06/20 11:07:54;;;;;;;;;;;32.20;91.80;;;;;;7337628;19;109145;-64
2023/06/20 11:10:25;;;;;;;;;;;32.30;91.60;;;;;;7336385;19;111451;-67
2023/06/20 11:12:53;;;;;;;;;;;32.40;91.60;;;;;;7331962;19;109042;-65
2023/06/20 11:15:27;;;;;;;;;;;32.30;91.40;;;;;;7337591;19;110451;-70
2023/06/20 11:17:55;;;;;;;;;;;32.40;91.60;;;;;;7334465;19;111310;-71
2023/06/20 11:20:26;;;;;;;;;;;32.60;90.60;;;;;;7337057;19;109250;-64
2023/06/20 11:22:55;;;;;;;;;;;32.50;90.90;;;;;;7339317;19;109497;-66
2023/06/20 11:25:22;;;;;;;;;;;32.50;89.40;;;;;;7336304;19;108615;-64
2023/06/20 11:27:49;;;;;;;;;;;32.70;89.30;;;;;;7339491;19;108883;-68
2023/06/20 11:30:23;;;;;;;;;;;32.80;90.30;;;;;;7337815;19;109133;-64
2023/06/20 11:33:01;;;;;;;;;;;32.90;88.10;;;;;;7335839;19;108720;-64
2023/06/20 11:36:03;;;;;;;;;;;32.90;90.10;;;;;;7335491;19;109506;-63
2023/06/20 11:38:30;;;;;;;;;;;33.10;90.00;;;;;;7329123;19;108936;-64
2023/06/20 11:41:04;;;;;;;;;;;33.40;88.50;;;;;;7333433;19;109483;-64
2023/06/20 11:43:38;;;;;;;;;;;33.40;88.60;;;;;;7328034;19;110829;-64
2023/06/20 11:46:06;;;;;;;;;;;33.50;88.50;;;;;;7333183;19;109243;-64
2023/06/20 11:48:33;;;;;;;;;;;33.40;88.20;;;;;;7330103;19;110682;-63
2023/06/20 11:51:06;;;;;;;;;;;33.40;86.40;;;;;;7329789;19;109220;-64
2023/06/20 11:53:35;;;;;;;;;;;33.40;87.80;;;;;;7337813;19;110232;-64
2023/06/20 11:56:04;;;;;;;;;;;33.60;87.70;;;;;;7327171;19;110201;-64
2023/06/20 11:58:39;;;;;;;;;;;33.80;88.60;;;;;;7330164;19;110052;-64
2023/06/20 12:01:25;;;;;;;;;;;33.80;86.30;;;;;;7329647;19;109819;-64
2023/06/20 12:04:10;;;;;;;;;;;33.90;84.40;;;;;;7332051;19;111594;-64
2023/06/20 12:06:39;;;;;;;;;;;33.80;86.90;;;;;;7329516;19;108500;-64
2023/06/20 12:09:11;;;;;;;;;;;33.90;86.40;;;;;;7328762;19;108908;-65
2023/06/20 12:11:48;;;;;;;;;;;33.90;86.10;;;;;;7332114;19;110426;-64
2023/06/20 12:14:16;;;;;;;;;;;33.90;86.50;;;;;;7334078;19;109232;-64
2023/06/20 12:16:43;;;;;;;;;;;33.80;85.60;;;;;;7337897;19;109976;-64
2023/06/20 12:19:10;;;;;;;;;;;33.80;84.50;;;;;;7334015;19;108614;-64
2023/06/20 12:21:38;;;;;;;;;;;33.70;85.20;;;;;;7337080;19;109344;-64
2023/06/20 12:24:06;;;;;;;;;;;33.70;84.60;;;;;;7333297;19;109616;-65
2023/06/20 12:26:33;;;;;;;;;;;33.60;86.20;;;;;;7335105;19;109232;-64
2023/06/20 12:29:00;;;;;;;;;;;33.70;85.50;;;;;;7332029;19;108429;-64
2023/06/20 12:31:27;;;;;;;;;;;33.80;86.70;;;;;;7336198;19;109487;-64
2023/06/20 12:33:55;;;;;;;;;;;33.80;84.90;;;;;;7330304;19;108975;-64
2023/06/20 12:36:22;;;;;;;;;;;33.80;85.60;;;;;;7334096;19;108876;-65
2023/06/20 12:38:49;;;;;;;;;;;33.60;86.30;;;;;;7336288;19;109696;-64
2023/06/20 12:41:17;;;;;;;;;;;33.60;85.80;;;;;;7336474;19;108881;-64
2023/06/20 12:43:44;;;;;;;;;;;33.60;83.60;;;;;;7333007;19;109534;-64
2023/06/20 12:46:11;;;;;;;;;;;33.50;85.20;;;;;;7334690;19;108950;-64
2023/06/20 12:48:38;;;;;;;;;;;33.50;85.30;;;;;;7333990;19;109594;-65
2023/06/20 12:51:06;;;;;;;;;;;33.60;85.30;;;;;;7330350;19;110460;-64
2023/06/20 12:53:35;;;;;;;;;;;33.80;85.30;;;;;;7337701;19;108624;-65
2023/06/20 12:56:02;;;;;;;;;;;33.90;83.70;;;;;;7334829;19;108468;-64
2023/06/20 12:58:32;;;;;;;;;;;34.00;84.90;;;;;;7337140;19;112943;-64
2023/06/20 13:00:59;;;;;;;;;;;34.00;82.80;;;;;;7333669;19;109111;-64
2023/06/20 13:03:27;;;;;;;;;;;34.00;83.50;;;;;;7333943;19;111737;-64
2023/06/20 13:05:54;;;;;;;;;;;34.10;83.60;;;;;;7331661;19;109128;-65
2023/06/20 13:08:21;;;;;;;;;;;34.20;83.90;;;;;;7333981;19;111038;-65
2023/06/20 13:10:48;;;;;;;;;;;34.30;83.20;;;;;;7329760;19;110120;-65
2023/06/20 13:13:15;;;;;;;;;;;34.40;82.80;;;;;;7332909;19;109047;-66
2023/06/20 13:15:43;;;;;;;;;;;34.60;84.00;;;;;;7328764;19;111156;-64
2023/06/20 13:18:10;;;;;;;;;;;34.80;82.40;;;;;;7333099;19;110775;-64
2023/06/20 13:20:37;;;;;;;;;;;34.90;81.80;;;;;;7337882;19;108427;-64
2023/06/20 13:23:04;;;;;;;;;;;34.90;80.70;;;;;;7330640;19;112925;-64
2023/06/20 13:25:31;;;;;;;;;;;34.80;82.50;;;;;;7327456;19;110060;-65
2023/06/20 13:27:58;;;;;;;;;;;34.70;81.00;;;;;;7332075;19;109752;-64
2023/06/20 13:30:25;;;;;;;;;;;34.60;81.50;;;;;;7327509;19;109609;-64
2023/06/20 13:32:53;;;;;;;;;;;34.40;81.10;;;;;;7330983;19;109637;-65
2023/06/20 13:35:22;;;;;;;;;;;34.30;80.40;;;;;;7333408;19;108831;-64
2023/06/20 13:37:50;;;;;;;;;;;34.30;80.90;;;;;;7331138;19;109696;-64
2023/06/20 13:40:17;;;;;;;;;;;34.40;80.40;;;;;;7333059;19;108646;-65
2023/06/20 13:42:48;;;;;;;;;;;34.30;80.40;;;;;;7334326;19;109355;-65
2023/06/20 13:45:16;;;;;;;;;;;34.20;79.40;;;;;;7333061;19;108746;-65
2023/06/20 13:47:44;;;;;;;;;;;34.10;81.20;;;;;;7331447;19;109356;-65
2023/06/20 13:50:12;;;;;;;;;;;34.10;80.80;;;;;;7333981;19;109127;-66
2023/06/20 13:52:39;;;;;;;;;;;34.00;80.90;;;;;;7331389;19;109803;-65
2023/06/20 13:55:07;;;;;;;;;;;33.90;80.20;;;;;;7334664;19;108905;-64
2023/06/20 13:57:34;;;;;;;;;;;33.90;79.90;;;;;;7332551;19;109601;-65
2023/06/20 14:00:10;;;;;;;;;;;33.90;80.70;;;;;;7334017;19;108726;-63
2023/06/20 14:02:37;;;;;;;;;;;33.70;78.90;;;;;;7328987;19;110889;-64
2023/06/20 14:05:05;;;;;;;;;;;33.60;80.00;;;;;;7332524;19;110145;-63
2023/06/20 14:07:34;;;;;;;;;;;33.30;89.70;;;;;;7333521;19;109246;-64
2023/06/20 14:10:01;;;;;;;;;;;32.60;91.10;;;;;;7328955;19;111457;-64
2023/06/20 14:12:28;;;;;;;;;;;32.10;93.30;;;;;;7330314;19;108945;-64